Time;durP1;ratioP1;P1;durP2;ratioP2;P2;SDS_P1;SDS_P2;PMS_P1;PMS_P2;Temp;Humidity;BMP_temperature;BMP_pressure;BME280_temperature;BME280_humidity;BME280_pressure;Samples;Min_cycle;Max_cycle;Signal;HPM_P1;HPM_P2
2022/05/18 00:01:49;;;;;;;;;6.20;5.20;;;;;;;;5038921;28;8847;-79
2022/05/18 00:04:16;;;;;;;;;5.00;5.00;;;;;;;;5034314;28;8859;-77
2022/05/18 00:06:43;;;;;;;;;6.80;6.20;;;;;;;;5040157;28;8981;-79
2022/05/18 00:09:11;;;;;;;;;5.00;5.00;;;;;;;;5038965;28;8871;-79
2022/05/18 00:11:40;;;;;;;;;3.40;3.40;;;;;;;;5040189;28;8923;-78
2022/05/18 00:14:07;;;;;;;;;5.40;5.40;;;;;;;;5040816;28;8871;-79
2022/05/18 00:16:35;;;;;;;;;6.60;6.60;;;;;;;;5042715;28;8882;-79
2022/05/18 00:19:03;;;;;;;;;7.60;4.60;;;;;;;;5041030;28;8866;-79
2022/05/18 00:21:31;;;;;;;;;4.00;4.00;;;;;;;;5043052;28;8875;-80
2022/05/18 00:23:58;;;;;;;;;5.00;5.00;;;;;;;;5045161;28;8956;-78
2022/05/18 00:26:25;;;;;;;;;5.00;5.00;;;;;;;;5039337;28;8988;-79
2022/05/18 00:28:54;;;;;;;;;5.00;5.00;;;;;;;;5043360;28;8889;-78
2022/05/18 00:31:21;;;;;;;;;2.80;2.80;;;;;;;;5043685;28;8828;-80
2022/05/18 00:33:49;;;;;;;;;3.60;3.60;;;;;;;;5046638;28;8871;-80
2022/05/18 00:36:17;;;;;;;;;4.20;4.20;;;;;;;;5045074;28;8859;-80
2022/05/18 00:38:44;;;;;;;;;4.00;4.00;;;;;;;;5049075;28;9637;-81
2022/05/18 00:41:12;;;;;;;;;4.60;4.60;;;;;;;;5045326;28;8905;-79
2022/05/18 00:43:42;;;;;;;;;4.80;4.80;;;;;;;;5045056;28;8953;-79
2022/05/18 00:46:13;;;;;;;;;5.00;5.00;;;;;;;;5043477;28;8864;-79
2022/05/18 00:48:41;;;;;;;;;4.60;4.60;;;;;;;;5047100;28;8848;-80
2022/05/18 00:51:14;;;;;;;;;7.00;5.00;;;;;;;;5050436;28;8900;-80
2022/05/18 00:53:44;;;;;;;;;4.60;4.60;;;;;;;;5051254;28;8882;-81
2022/05/18 00:56:16;;;;;;;;;5.40;5.40;;;;;;;;5050267;28;8902;-81
2022/05/18 00:58:46;;;;;;;;;7.20;4.60;;;;;;;;5049562;28;8906;-80
2022/05/18 01:01:14;;;;;;;;;8.20;5.00;;;;;;;;5045131;28;8861;-80
2022/05/18 01:03:44;;;;;;;;;4.00;4.00;;;;;;;;5042981;28;9022;-80
2022/05/18 01:06:17;;;;;;;;;7.60;7.60;;;;;;;;5040422;28;9227;-80
2022/05/18 01:08:49;;;;;;;;;4.00;4.00;;;;;;;;5042959;28;8863;-80
2022/05/18 01:11:17;;;;;;;;;5.60;5.60;;;;;;;;5044278;28;8867;-79
2022/05/18 01:13:44;;;;;;;;;5.80;4.20;;;;;;;;5041056;28;8916;-79
2022/05/18 01:16:11;;;;;;;;;6.00;5.00;;;;;;;;5039821;28;8908;-79
2022/05/18 01:18:40;;;;;;;;;4.60;4.60;;;;;;;;5020441;28;8871;-80
2022/05/18 01:21:07;;;;;;;;;6.60;6.00;;;;;;;;5041179;28;9629;-81
2022/05/18 01:23:45;;;;;;;;;7.00;5.80;;;;;;;;5045680;28;8859;-80
2022/05/18 01:26:18;;;;;;;;;6.60;5.80;;;;;;;;5043944;28;8885;-80
2022/05/18 01:28:52;;;;;;;;;5.60;5.60;;;;;;;;5039207;28;8885;-79
2022/05/18 01:31:20;;;;;;;;;2.40;2.40;;;;;;;;5042570;28;8799;-80
2022/05/18 01:33:47;;;;;;;;;4.80;4.80;;;;;;;;5044581;28;8889;-80
2022/05/18 01:36:14;;;;;;;;;5.80;5.80;;;;;;;;5043221;28;8871;-79
2022/05/18 01:38:42;;;;;;;;;7.80;7.80;;;;;;;;5041527;28;9006;-81
2022/05/18 01:41:13;;;;;;;;;9.40;7.80;;;;;;;;5044595;28;8917;-80
2022/05/18 01:43:43;;;;;;;;;4.00;4.00;;;;;;;;5043308;28;9019;-80
2022/05/18 01:46:14;;;;;;;;;8.80;7.00;;;;;;;;5040796;28;8871;-79
2022/05/18 01:48:45;;;;;;;;;8.80;7.00;;;;;;;;5041664;28;8998;-81
2022/05/18 01:51:14;;;;;;;;;5.40;5.40;;;;;;;;5042163;28;8890;-80
2022/05/18 01:53:41;;;;;;;;;9.00;7.80;;;;;;;;5042659;28;8894;-80
2022/05/18 01:56:08;;;;;;;;;6.40;6.40;;;;;;;;5044593;28;9632;-81
2022/05/18 01:58:36;;;;;;;;;7.80;7.40;;;;;;;;5043284;28;8851;-80
2022/05/18 02:01:04;;;;;;;;;5.00;5.00;;;;;;;;5046117;28;8963;-81
2022/05/18 02:03:33;;;;;;;;;5.60;5.60;;;;;;;;5049909;28;8989;-80
2022/05/18 02:06:00;;;;;;;;;5.60;5.60;;;;;;;;5048693;28;8874;-81
2022/05/18 02:08:28;;;;;;;;;4.00;4.00;;;;;;;;5043275;28;8866;-82
2022/05/18 02:10:55;;;;;;;;;5.00;5.00;;;;;;;;5046223;28;9635;-80
2022/05/18 02:13:22;;;;;;;;;6.20;6.20;;;;;;;;5052784;28;8878;-82
2022/05/18 02:15:50;;;;;;;;;5.20;4.20;;;;;;;;5044233;28;8886;-81
2022/05/18 02:18:18;;;;;;;;;6.60;6.60;;;;;;;;5038673;28;9671;-81
2022/05/18 02:20:46;;;;;;;;;5.40;5.40;;;;;;;;5046302;28;8917;-81
2022/05/18 02:23:14;;;;;;;;;8.00;4.00;;;;;;;;5050355;28;8867;-81
2022/05/18 02:25:41;;;;;;;;;7.00;7.00;;;;;;;;5044526;28;8922;-80
2022/05/18 02:28:09;;;;;;;;;4.60;4.60;;;;;;;;5044572;28;8855;-81
2022/05/18 02:30:37;;;;;;;;;6.20;3.40;;;;;;;;5047799;28;8803;-83
2022/05/18 02:33:05;;;;;;;;;5.40;5.40;;;;;;;;5042246;28;8907;-80
2022/05/18 02:35:33;;;;;;;;;6.00;4.25;;;;;;;;5041714;28;8882;-80
2022/05/18 02:38:02;;;;;;;;;6.25;4.75;;;;;;;;5039789;28;8898;-81
2022/05/18 02:40:29;;;;;;;;;6.50;4.50;;;;;;;;5042854;28;9696;-80
2022/05/18 02:42:57;;;;;;;;;5.75;5.75;;;;;;;;5041864;28;8874;-80
2022/05/18 02:45:24;;;;;;;;;4.50;4.50;;;;;;;;5040588;28;8878;-81
2022/05/18 02:47:51;;;;;;;;;5.25;5.25;;;;;;;;5041716;28;8887;-81
2022/05/18 02:50:19;;;;;;;;;4.00;4.00;;;;;;;;5041906;28;8867;-81
2022/05/18 02:52:46;;;;;;;;;4.25;4.25;;;;;;;;5041857;28;8882;-80
2022/05/18 02:58:00;;;;;;;;;5.00;3.75;;;;;;;;5039984;28;8855;-79
2022/05/18 03:00:27;;;;;;;;;5.50;5.00;;;;;;;;5040882;28;8893;-81
2022/05/18 03:02:55;;;;;;;;;4.50;3.75;;;;;;;;5042098;28;8942;-80
2022/05/18 03:05:22;;;;;;;;;4.50;4.50;;;;;;;;5038797;28;8982;-79
2022/05/18 03:07:49;;;;;;;;;4.50;3.75;;;;;;;;5046899;28;8882;-81
2022/05/18 03:10:18;;;;;;;;;6.00;4.25;;;;;;;;5049542;28;8883;-80
2022/05/18 03:12:46;;;;;;;;;4.75;4.75;;;;;;;;5033635;28;8881;-80
2022/05/18 03:15:14;;;;;;;;;4.75;4.75;;;;;;;;5038135;28;8863;-80
2022/05/18 03:17:42;;;;;;;;;4.00;4.00;;;;;;;;5043688;28;8905;-79
2022/05/18 03:23:33;;;;;;;;;2.00;2.00;;;;;;;;5040955;28;8858;-80
2022/05/18 03:25:44;;;;;;;;;3.00;3.00;;;;;;;;5036395;28;8843;-80
2022/05/18 03:28:11;;;;;;;;;4.50;3.00;;;;;;;;5039510;28;8986;-80
2022/05/18 03:30:38;;;;;;;;;2.75;2.75;;;;;;;;5047953;28;8792;-81
2022/05/18 03:33:06;;;;;;;;;2.75;2.75;;;;;;;;5047066;28;9010;-81
2022/05/18 03:35:33;;;;;;;;;2.00;2.00;;;;;;;;5038291;28;8886;-81
2022/05/18 03:38:05;;;;;;;;;5.00;3.00;;;;;;;;5045189;28;9621;-80
2022/05/18 03:40:35;;;;;;;;;3.00;3.00;;;;;;;;5037521;28;8890;-81
2022/05/18 03:43:03;;;;;;;;;5.00;5.00;;;;;;;;5041581;28;9724;-81
2022/05/18 03:45:33;;;;;;;;;3.00;3.00;;;;;;;;5042154;28;8913;-79
2022/05/18 03:48:01;;;;;;;;;4.50;4.50;;;;;;;;5035338;28;8867;-79
2022/05/18 03:50:30;;;;;;;;;3.00;3.00;;;;;;;;5042896;28;9618;-81
2022/05/18 03:52:57;;;;;;;;;4.50;3.00;;;;;;;;5039445;28;9373;-80
2022/05/18 03:55:26;;;;;;;;;4.00;4.00;;;;;;;;5040589;28;8879;-80
2022/05/18 03:57:53;;;;;;;;;4.50;3.00;;;;;;;;5049024;28;8876;-82
2022/05/18 04:00:23;;;;;;;;;4.00;2.25;;;;;;;;5048769;28;8871;-81
2022/05/18 04:02:50;;;;;;;;;4.75;4.75;;;;;;;;5035483;28;8856;-81
2022/05/18 04:05:20;;;;;;;;;4.50;3.00;;;;;;;;5038535;28;9658;-80
2022/05/18 04:07:47;;;;;;;;;4.50;4.00;;;;;;;;5035042;28;8902;-80
2022/05/18 04:10:15;;;;;;;;;3.50;3.50;;;;;;;;5041793;28;8997;-79
2022/05/18 04:12:43;;;;;;;;;6.25;3.00;;;;;;;;5035455;28;8932;-81
2022/05/18 04:15:16;;;;;;;;;4.00;3.50;;;;;;;;5038187;28;8901;-81
2022/05/18 04:17:45;;;;;;;;;4.00;4.00;;;;;;;;5059844;28;8977;-80
2022/05/18 04:20:13;;;;;;;;;4.25;2.25;;;;;;;;5035988;28;8850;-80
2022/05/18 04:22:41;;;;;;;;;6.75;4.00;;;;;;;;5037757;28;8875;-80
2022/05/18 04:25:10;;;;;;;;;2.75;1.00;;;;;;;;5041163;28;8988;-80
2022/05/18 04:27:38;;;;;;;;;6.00;4.00;;;;;;;;5037596;28;8883;-79
2022/05/18 04:30:07;;;;;;;;;5.50;4.00;;;;;;;;5036740;28;8855;-79
2022/05/18 04:32:35;;;;;;;;;2.50;2.50;;;;;;;;5039792;28;8883;-80
2022/05/18 04:35:04;;;;;;;;;3.75;3.75;;;;;;;;5042564;28;9649;-82
2022/05/18 04:37:31;;;;;;;;;6.00;5.00;;;;;;;;5039182;28;9668;-81
2022/05/18 04:39:58;;;;;;;;;5.00;5.00;;;;;;;;5035278;28;8852;-80
2022/05/18 04:42:25;;;;;;;;;4.00;4.00;;;;;;;;5039940;28;8875;-81
2022/05/18 04:44:53;;;;;;;;;4.25;4.00;;;;;;;;5036463;28;8875;-80
2022/05/18 04:47:22;;;;;;;;;7.00;5.00;;;;;;;;5038922;28;10351;-82
2022/05/18 04:49:50;;;;;;;;;6.00;6.00;;;;;;;;5036876;28;8865;-80
2022/05/18 04:52:19;;;;;;;;;5.50;5.50;;;;;;;;5036717;28;8839;-80
2022/05/18 04:54:46;;;;;;;;;5.75;5.75;;;;;;;;5040946;28;8858;-81
2022/05/18 04:57:14;;;;;;;;;7.00;3.25;;;;;;;;5040682;28;8969;-81
2022/05/18 04:59:42;;;;;;;;;5.00;5.00;;;;;;;;5040083;28;8881;-80
2022/05/18 05:02:09;;;;;;;;;7.25;6.75;;;;;;;;5036336;28;8826;-82
2022/05/18 05:04:37;;;;;;;;;7.50;6.00;;;;;;;;5040776;28;8949;-82
2022/05/18 05:07:05;;;;;;;;;5.00;5.00;;;;;;;;5040372;28;8979;-83
2022/05/18 05:09:34;;;;;;;;;6.00;6.00;;;;;;;;5040247;28;8978;-82
2022/05/18 05:12:01;;;;;;;;;8.00;7.00;;;;;;;;5043352;28;8862;-78
2022/05/18 05:14:29;;;;;;;;;7.50;7.00;;;;;;;;5046248;28;8878;-77
2022/05/18 05:16:56;;;;;;;;;5.00;5.00;;;;;;;;5038607;28;8874;-78
2022/05/18 05:19:23;;;;;;;;;6.75;6.00;;;;;;;;5038903;28;8854;-79
2022/05/18 05:21:51;;;;;;;;;7.25;7.25;;;;;;;;5036948;28;8859;-83
2022/05/18 05:24:18;;;;;;;;;6.00;5.75;;;;;;;;5038066;28;9428;-81
2022/05/18 05:26:47;;;;;;;;;6.75;6.75;;;;;;;;5038769;28;8882;-76
2022/05/18 05:29:14;;;;;;;;;5.75;5.75;;;;;;;;5037296;28;8869;-77
2022/05/18 05:31:41;;;;;;;;;6.00;6.00;;;;;;;;5035213;28;8843;-77
2022/05/18 05:34:09;;;;;;;;;7.00;5.75;;;;;;;;5032277;28;9601;-77
2022/05/18 05:36:36;;;;;;;;;6.25;6.25;;;;;;;;5041483;28;8847;-76
2022/05/18 05:39:03;;;;;;;;;6.75;6.75;;;;;;;;5035938;28;8889;-78
2022/05/18 05:41:31;;;;;;;;;6.50;5.75;;;;;;;;5037262;28;8858;-79
2022/05/18 05:43:59;;;;;;;;;4.25;4.25;;;;;;;;5037830;28;8902;-78
2022/05/18 05:46:27;;;;;;;;;6.00;6.00;;;;;;;;5039780;28;8878;-76
2022/05/18 05:48:56;;;;;;;;;8.00;8.00;;;;;;;;5034636;28;8861;-80
2022/05/18 05:51:24;;;;;;;;;6.25;6.00;;;;;;;;5036794;28;8861;-77
2022/05/18 05:53:52;;;;;;;;;5.00;5.00;;;;;;;;5036151;28;8878;-75
2022/05/18 05:56:21;;;;;;;;;9.00;7.50;;;;;;;;5035195;28;8874;-78
2022/05/18 05:58:49;;;;;;;;;8.00;6.75;;;;;;;;5036471;28;8904;-78
2022/05/18 06:01:19;;;;;;;;;7.00;7.00;;;;;;;;5032615;28;8863;-78
2022/05/18 06:03:47;;;;;;;;;6.50;5.00;;;;;;;;5037207;28;8873;-76
2022/05/18 06:06:14;;;;;;;;;9.00;7.75;;;;;;;;5039106;28;8865;-76
2022/05/18 06:08:42;;;;;;;;;5.25;5.25;;;;;;;;5035582;28;9298;-76
2022/05/18 06:11:10;;;;;;;;;7.75;7.00;;;;;;;;5033140;28;8911;-75
2022/05/18 06:13:40;;;;;;;;;8.00;8.00;;;;;;;;5034527;28;8871;-76
2022/05/18 06:16:09;;;;;;;;;6.00;6.00;;;;;;;;5033779;28;9628;-76
2022/05/18 06:18:39;;;;;;;;;9.50;7.00;;;;;;;;5033629;28;8854;-75
2022/05/18 06:21:07;;;;;;;;;6.75;5.50;;;;;;;;5037510;28;9001;-76
2022/05/18 06:23:36;;;;;;;;;6.50;6.50;;;;;;;;5034617;28;8894;-77
2022/05/18 06:26:05;;;;;;;;;8.25;8.25;;;;;;;;5034677;28;8877;-78
2022/05/18 06:28:36;;;;;;;;;7.50;6.25;;;;;;;;5036115;28;8871;-76
2022/05/18 06:31:03;;;;;;;;;5.25;5.25;;;;;;;;5033180;28;8893;-74
2022/05/18 06:33:30;;;;;;;;;6.25;5.75;;;;;;;;5036317;28;8867;-77
2022/05/18 06:35:59;;;;;;;;;11.50;7.50;;;;;;;;5035473;28;8863;-78
2022/05/18 06:38:28;;;;;;;;;7.50;7.50;;;;;;;;5034966;28;8903;-76
2022/05/18 06:43:40;;;;;;;;;5.25;5.25;;;;;;;;5038511;28;8863;-83
2022/05/18 06:46:08;;;;;;;;;7.00;6.00;;;;;;;;5035026;28;8874;-80
2022/05/18 06:48:35;;;;;;;;;5.75;3.50;;;;;;;;5038995;28;8882;-80
2022/05/18 06:51:04;;;;;;;;;6.75;6.75;;;;;;;;5032170;28;8997;-80
2022/05/18 06:53:34;;;;;;;;;9.00;7.50;;;;;;;;5032577;28;8885;-80
2022/05/18 06:56:01;;;;;;;;;4.75;4.00;;;;;;;;5042905;28;8944;-79
2022/05/18 06:58:28;;;;;;;;;5.00;5.00;;;;;;;;5035043;28;8879;-77
2022/05/18 07:00:55;;;;;;;;;2.75;2.25;;;;;;;;5027264;28;9670;-78
2022/05/18 07:03:23;;;;;;;;;2.00;2.00;;;;;;;;5037111;28;8885;-78
2022/05/18 07:05:50;;;;;;;;;4.75;4.75;;;;;;;;5040163;28;8900;-77
2022/05/18 07:08:19;;;;;;;;;4.50;3.00;;;;;;;;5040659;28;8883;-78
2022/05/18 07:10:46;;;;;;;;;4.25;4.00;;;;;;;;5037440;28;8926;-78
2022/05/18 07:13:17;;;;;;;;;5.00;3.00;;;;;;;;5037628;28;8863;-77
2022/05/18 07:15:45;;;;;;;;;3.00;0.75;;;;;;;;5039107;28;8871;-79
2022/05/18 07:18:12;;;;;;;;;3.25;2.00;;;;;;;;5037508;28;8887;-78
2022/05/18 07:20:40;;;;;;;;;3.00;3.00;;;;;;;;5040949;28;8964;-79
2022/05/18 07:23:08;;;;;;;;;4.00;3.75;;;;;;;;5039111;28;8863;-77
2022/05/18 07:25:37;;;;;;;;;3.00;3.00;;;;;;;;5034829;28;8882;-78
2022/05/18 07:28:05;;;;;;;;;3.00;3.00;;;;;;;;5036867;28;8847;-78
2022/05/18 07:30:33;;;;;;;;;4.00;4.00;;;;;;;;5036908;28;8819;-79
2022/05/18 07:33:00;;;;;;;;;6.50;5.00;;;;;;;;5043090;28;9008;-79
2022/05/18 07:35:28;;;;;;;;;6.00;4.50;;;;;;;;5048523;28;8909;-80
2022/05/18 07:37:57;;;;;;;;;4.75;4.75;;;;;;;;5034693;28;8928;-77
2022/05/18 07:40:25;;;;;;;;;3.75;3.75;;;;;;;;5040423;28;8944;-77
2022/05/18 07:42:56;;;;;;;;;6.50;5.75;;;;;;;;5046658;28;8881;-79
2022/05/18 07:45:25;;;;;;;;;7.25;5.50;;;;;;;;5044079;28;8996;-79
2022/05/18 07:47:53;;;;;;;;;6.20;4.40;;;;;;;;5049194;28;8889;-80
2022/05/18 07:50:21;;;;;;;;;3.00;3.00;;;;;;;;5040871;28;8921;-80
2022/05/18 07:52:48;;;;;;;;;3.40;3.40;;;;;;;;5043591;28;8886;-79
2022/05/18 07:55:16;;;;;;;;;3.40;3.40;;;;;;;;5045097;28;8850;-79
2022/05/18 07:57:44;;;;;;;;;5.00;3.20;;;;;;;;5042743;28;8852;-80
2022/05/18 08:00:15;;;;;;;;;2.20;2.20;;;;;;;;5034455;28;8901;-78
2022/05/18 08:02:42;;;;;;;;;4.00;4.00;;;;;;;;5036711;28;9017;-80
2022/05/18 08:05:10;;;;;;;;;3.00;1.40;;;;;;;;5038515;28;8885;-79
2022/05/18 08:07:39;;;;;;;;;4.20;4.20;;;;;;;;5030053;28;8850;-77
2022/05/18 08:15:38;;;;;;;;;1.00;1.00;;;;;;;;5033006;28;8850;-79
2022/05/18 08:18:06;;;;;;;;;1.00;1.00;;;;;;;;5041007;28;8882;-78
2022/05/18 08:20:37;;;;;;;;;3.40;1.40;;;;;;;;5035759;28;8889;-78
2022/05/18 08:23:04;;;;;;;;;2.20;2.00;;;;;;;;5038050;28;8885;-77
2022/05/18 08:25:31;;;;;;;;;1.00;1.00;;;;;;;;5032764;28;8885;-77
2022/05/18 08:27:59;;;;;;;;;1.00;1.00;;;;;;;;5036138;28;9542;-77
2022/05/18 08:30:30;;;;;;;;;1.00;1.00;;;;;;;;5036044;28;8847;-76
2022/05/18 08:33:03;;;;;;;;;2.40;0.60;;;;;;;;5035103;28;8855;-82
2022/05/18 08:35:31;;;;;;;;;2.00;0.60;;;;;;;;5033083;28;8898;-83
2022/05/18 08:37:58;;;;;;;;;1.00;1.00;;;;;;;;5038604;28;9016;-84
2022/05/18 08:40:41;;;;;;;;;1.00;1.00;;;;;;;;5037680;28;8871;-82
2022/05/18 08:43:10;;;;;;;;;1.00;1.00;;;;;;;;5038893;28;8827;-83
2022/05/18 08:45:41;;;;;;;;;1.00;1.00;;;;;;;;5034686;28;9555;-79
2022/05/18 08:48:20;;;;;;;;;0.00;0.00;;;;;;;;5040693;28;8891;-80
2022/05/18 08:50:48;;;;;;;;;0.00;0.00;;;;;;;;5038704;28;8875;-78
2022/05/18 08:53:35;;;;;;;;;0.00;0.00;;;;;;;;5040548;28;8871;-76
2022/05/18 08:56:12;;;;;;;;;0.80;0.80;;;;;;;;5033135;28;8888;-79
2022/05/18 08:58:42;;;;;;;;;0.00;0.00;;;;;;;;5039826;28;8947;-79
2022/05/18 09:01:14;;;;;;;;;1.80;0.00;;;;;;;;5039528;28;8808;-80
2022/05/18 09:03:47;;;;;;;;;1.00;1.00;;;;;;;;5040482;28;9699;-80
2022/05/18 09:06:32;;;;;;;;;0.20;0.20;;;;;;;;5035401;28;9397;-80
2022/05/18 09:11:54;;;;;;;;;1.00;1.00;;;;;;;;5039411;28;8866;-80
2022/05/18 09:14:23;;;;;;;;;0.60;0.60;;;;;;;;5040554;28;8882;-79
2022/05/18 09:16:59;;;;;;;;;0.80;0.80;;;;;;;;5039099;28;8980;-78
2022/05/18 09:19:34;;;;;;;;;0.20;0.20;;;;;;;;5039301;28;8875;-77
2022/05/18 09:22:09;;;;;;;;;1.00;0.60;;;;;;;;5037383;28;8911;-78
2022/05/18 09:24:46;;;;;;;;;0.80;0.80;;;;;;;;5033329;28;8866;-79
2022/05/18 09:27:25;;;;;;;;;0.60;0.60;;;;;;;;5032114;28;8908;-79
2022/05/18 09:30:03;;;;;;;;;0.40;0.40;;;;;;;;5039800;28;8922;-79
2022/05/18 09:32:42;;;;;;;;;0.60;0.60;;;;;;;;5036664;28;8844;-79
2022/05/18 09:35:29;;;;;;;;;1.40;0.00;;;;;;;;5041927;28;8878;-77
2022/05/18 09:38:00;;;;;;;;;0.20;0.20;;;;;;;;5037917;28;8889;-78
2022/05/18 09:40:30;;;;;;;;;0.00;0.00;;;;;;;;5039421;28;8875;-80
2022/05/18 09:43:04;;;;;;;;;0.00;0.00;;;;;;;;5040104;28;8874;-79
2022/05/18 09:45:36;;;;;;;;;0.20;0.20;;;;;;;;5035713;28;8981;-78
2022/05/18 09:48:07;;;;;;;;;1.00;1.00;;;;;;;;5037998;28;8863;-77
2022/05/18 09:50:41;;;;;;;;;0.00;0.00;;;;;;;;5040605;28;9009;-81
2022/05/18 09:53:09;;;;;;;;;1.20;1.20;;;;;;;;5038750;28;8859;-80
2022/05/18 09:55:37;;;;;;;;;0.00;0.00;;;;;;;;5043085;28;8885;-78
2022/05/18 09:58:08;;;;;;;;;1.40;1.40;;;;;;;;5037218;28;8989;-82
2022/05/18 10:00:38;;;;;;;;;1.20;0.20;;;;;;;;5033879;28;8803;-79
2022/05/18 10:08:49;;;;;;;;;0.00;0.00;;;;;;;;5044238;28;8867;-80
2022/05/18 10:11:18;;;;;;;;;0.80;0.80;;;;;;;;5041711;28;8871;-80
2022/05/18 10:13:56;;;;;;;;;0.00;0.00;;;;;;;;5043817;28;8879;-80
2022/05/18 10:16:41;;;;;;;;;0.80;0.80;;;;;;;;5044228;28;8889;-81
2022/05/18 10:19:17;;;;;;;;;0.00;0.00;;;;;;;;5043185;28;8863;-80
2022/05/18 10:21:53;;;;;;;;;0.00;0.00;;;;;;;;5040572;28;8871;-80
2022/05/18 10:24:33;;;;;;;;;0.80;0.80;;;;;;;;5041056;28;8871;-80
2022/05/18 10:27:19;;;;;;;;;0.00;0.00;;;;;;;;5045009;28;8940;-80
2022/05/18 10:29:53;;;;;;;;;0.00;0.00;;;;;;;;5041919;28;8883;-80
2022/05/18 10:32:23;;;;;;;;;0.40;0.40;;;;;;;;5038951;28;8803;-80
2022/05/18 10:34:52;;;;;;;;;1.00;1.00;;;;;;;;5044060;28;8875;-81
2022/05/18 10:37:29;;;;;;;;;0.00;0.00;;;;;;;;5043706;28;8906;-80
2022/05/18 10:40:02;;;;;;;;;1.80;1.80;;;;;;;;5042128;28;8917;-80
2022/05/18 10:42:32;;;;;;;;;1.80;1.80;;;;;;;;5043933;28;9636;-80
2022/05/18 10:45:01;;;;;;;;;1.60;1.00;;;;;;;;5041753;28;9004;-80
2022/05/18 10:47:32;;;;;;;;;0.80;0.80;;;;;;;;5043767;28;8960;-80
2022/05/18 10:50:23;;;;;;;;;0.80;0.80;;;;;;;;5042388;28;8882;-78
2022/05/18 10:52:54;;;;;;;;;0.00;0.00;;;;;;;;5033435;28;8931;-79
2022/05/18 10:55:25;;;;;;;;;0.60;0.00;;;;;;;;5043105;28;8871;-80
2022/05/18 10:58:00;;;;;;;;;0.00;0.00;;;;;;;;5040153;28;8911;-79
2022/05/18 11:00:33;;;;;;;;;0.60;0.00;;;;;;;;5041666;28;8781;-80
2022/05/18 11:03:11;;;;;;;;;1.00;1.00;;;;;;;;5050005;28;9021;-80
2022/05/18 11:05:45;;;;;;;;;0.20;0.20;;;;;;;;5044813;28;8879;-80
2022/05/18 11:08:16;;;;;;;;;0.00;0.00;;;;;;;;5044078;28;8867;-80
2022/05/18 11:10:50;;;;;;;;;0.80;0.20;;;;;;;;5051081;28;8880;-81
2022/05/18 11:13:22;;;;;;;;;0.00;0.00;;;;;;;;5049288;28;9697;-79
2022/05/18 11:15:59;;;;;;;;;0.80;0.80;;;;;;;;5049484;28;8876;-80
2022/05/18 11:18:32;;;;;;;;;0.00;0.00;;;;;;;;5052001;28;8996;-80
2022/05/18 11:21:08;;;;;;;;;1.80;0.00;;;;;;;;5052055;28;8862;-80
2022/05/18 11:23:46;;;;;;;;;0.00;0.00;;;;;;;;5045018;28;8877;-80
2022/05/18 11:26:24;;;;;;;;;0.80;0.80;;;;;;;;5033398;28;8877;-79
2022/05/18 11:28:58;;;;;;;;;1.60;1.40;;;;;;;;5034501;28;9287;-78
2022/05/18 11:31:48;;;;;;;;;1.00;1.00;;;;;;;;5037777;28;8800;-76
2022/05/18 11:34:25;;;;;;;;;0.00;0.00;;;;;;;;5038576;28;8946;-79
2022/05/18 11:37:02;;;;;;;;;0.00;0.00;;;;;;;;5034495;28;8867;-76
2022/05/18 11:39:38;;;;;;;;;0.00;0.00;;;;;;;;5032591;28;8867;-79
2022/05/18 11:42:16;;;;;;;;;0.00;0.00;;;;;;;;5031771;28;8851;-77
2022/05/18 11:44:52;;;;;;;;;0.00;0.00;;;;;;;;5034958;28;8862;-82
2022/05/18 11:47:31;;;;;;;;;0.00;0.00;;;;;;;;5024289;28;8858;-81
2022/05/18 11:50:07;;;;;;;;;0.00;0.00;;;;;;;;5034688;28;8863;-79
2022/05/18 11:52:42;;;;;;;;;0.00;0.00;;;;;;;;5035483;28;8867;-80
2022/05/18 11:55:21;;;;;;;;;2.00;0.00;;;;;;;;5036801;28;8879;-80
2022/05/18 11:57:55;;;;;;;;;0.00;0.00;;;;;;;;5039953;28;8891;-83
2022/05/18 12:00:44;;;;;;;;;0.00;0.00;;;;;;;;5042200;28;8960;-80
2022/05/18 12:03:41;;;;;;;;;0.20;0.20;;;;;;;;5037588;28;8874;-82
2022/05/18 12:06:34;;;;;;;;;0.00;0.00;;;;;;;;5038892;28;8867;-81
2022/05/18 12:09:27;;;;;;;;;0.00;0.00;;;;;;;;5041115;28;9001;-82
2022/05/18 12:12:03;;;;;;;;;0.00;0.00;;;;;;;;5032808;28;8881;-82
2022/05/18 12:14:40;;;;;;;;;0.80;0.00;;;;;;;;5044317;28;8886;-82
2022/05/18 12:17:13;;;;;;;;;1.00;1.00;;;;;;;;5044326;28;8891;-81
2022/05/18 12:19:45;;;;;;;;;0.60;0.60;;;;;;;;5043869;28;9023;-82
2022/05/18 12:22:14;;;;;;;;;0.00;0.00;;;;;;;;5045359;28;9632;-82
2022/05/18 12:24:44;;;;;;;;;1.40;1.40;;;;;;;;5039296;28;9617;-81
2022/05/18 12:27:15;;;;;;;;;0.00;0.00;;;;;;;;5046442;28;9021;-81
2022/05/18 12:29:43;;;;;;;;;0.00;0.00;;;;;;;;5042477;28;8997;-82
2022/05/18 12:32:12;;;;;;;;;0.20;0.20;;;;;;;;5045092;28;8848;-82
2022/05/18 12:34:44;;;;;;;;;2.00;1.00;;;;;;;;5042644;28;8874;-81
2022/05/18 12:37:25;;;;;;;;;1.00;1.00;;;;;;;;5042054;28;8875;-81
2022/05/18 12:40:09;;;;;;;;;0.00;0.00;;;;;;;;5043948;28;8896;-81
2022/05/18 12:42:43;;;;;;;;;0.60;0.60;;;;;;;;5044466;28;8866;-80
2022/05/18 12:45:15;;;;;;;;;0.00;0.00;;;;;;;;5044371;28;8890;-81
2022/05/18 12:47:52;;;;;;;;;0.00;0.00;;;;;;;;5040174;28;8878;-81
2022/05/18 12:50:30;;;;;;;;;0.00;0.00;;;;;;;;5042068;28;8909;-79
2022/05/18 12:53:01;;;;;;;;;0.00;0.00;;;;;;;;5043421;28;8991;-82
2022/05/18 12:55:39;;;;;;;;;0.00;0.00;;;;;;;;5043622;28;8941;-82
2022/05/18 12:58:39;;;;;;;;;1.00;1.00;;;;;;;;5041872;28;9009;-82
2022/05/18 13:01:12;;;;;;;;;0.20;0.20;;;;;;;;5044374;28;8803;-81
2022/05/18 13:03:59;;;;;;;;;0.20;0.20;;;;;;;;5044491;28;9629;-81
2022/05/18 13:06:44;;;;;;;;;0.00;0.00;;;;;;;;5035532;28;9007;-78
2022/05/18 13:09:34;;;;;;;;;1.00;1.00;;;;;;;;5036671;28;8965;-75
2022/05/18 13:12:24;;;;;;;;;0.00;0.00;;;;;;;;5040644;28;8862;-78
2022/05/18 13:15:03;;;;;;;;;0.00;0.00;;;;;;;;5041441;28;8879;-81
2022/05/18 13:17:51;;;;;;;;;0.40;0.40;;;;;;;;5041583;28;8909;-76
2022/05/18 13:20:52;;;;;;;;;0.00;0.00;;;;;;;;5039789;28;8983;-80
2022/05/18 13:23:42;;;;;;;;;0.00;0.00;;;;;;;;5039965;28;8915;-79
2022/05/18 13:26:24;;;;;;;;;0.00;0.00;;;;;;;;5039931;28;8889;-81
2022/05/18 13:28:52;;;;;;;;;1.00;0.00;;;;;;;;5040260;28;8913;-78
2022/05/18 13:31:22;;;;;;;;;0.00;0.00;;;;;;;;5041137;28;8848;-82
2022/05/18 13:33:58;;;;;;;;;1.20;0.80;;;;;;;;5041648;28;8893;-79
2022/05/18 13:36:39;;;;;;;;;0.00;0.00;;;;;;;;5041684;28;8866;-81
2022/05/18 13:39:08;;;;;;;;;0.00;0.00;;;;;;;;5040553;28;8855;-80
2022/05/18 13:41:37;;;;;;;;;0.00;0.00;;;;;;;;5038257;28;8928;-79
2022/05/18 13:44:06;;;;;;;;;0.00;0.00;;;;;;;;5039999;28;8863;-80
2022/05/18 13:46:35;;;;;;;;;0.00;0.00;;;;;;;;5041865;28;8981;-78
2022/05/18 13:49:07;;;;;;;;;0.40;0.20;;;;;;;;5042884;28;8889;-79
2022/05/18 13:51:37;;;;;;;;;1.00;0.00;;;;;;;;5041253;28;10103;-79
2022/05/18 13:54:09;;;;;;;;;0.00;0.00;;;;;;;;5039622;28;8871;-81
2022/05/18 13:56:39;;;;;;;;;0.00;0.00;;;;;;;;5042974;28;8914;-82
2022/05/18 13:59:10;;;;;;;;;0.20;0.20;;;;;;;;5042146;28;8967;-79
2022/05/18 14:01:45;;;;;;;;;0.00;0.00;;;;;;;;5039611;28;9612;-81
2022/05/18 14:04:16;;;;;;;;;0.00;0.00;;;;;;;;5041867;28;8950;-79
2022/05/18 14:06:48;;;;;;;;;0.00;0.00;;;;;;;;5044687;28;9659;-83
2022/05/18 14:09:18;;;;;;;;;0.00;0.00;;;;;;;;5040907;28;8905;-84
2022/05/18 14:11:45;;;;;;;;;0.00;0.00;;;;;;;;5045732;28;9686;-84
2022/05/18 14:14:14;;;;;;;;;0.00;0.00;;;;;;;;5040274;28;8893;-83
2022/05/18 14:16:46;;;;;;;;;0.00;0.00;;;;;;;;5047602;28;8874;-82
2022/05/18 14:19:19;;;;;;;;;0.00;0.00;;;;;;;;5041210;28;8872;-80
2022/05/18 14:21:47;;;;;;;;;0.00;0.00;;;;;;;;5040760;28;8920;-87
2022/05/18 14:24:19;;;;;;;;;0.00;0.00;;;;;;;;5045203;28;8891;-90
2022/05/18 14:26:51;;;;;;;;;0.00;0.00;;;;;;;;5044518;28;8885;-88
2022/05/18 14:29:25;;;;;;;;;0.00;0.00;;;;;;;;5046263;28;8931;-90
2022/05/18 14:31:59;;;;;;;;;0.80;0.00;;;;;;;;5052237;28;8848;-89
2022/05/18 14:34:31;;;;;;;;;0.00;0.00;;;;;;;;5048454;28;8884;-90
2022/05/18 14:36:59;;;;;;;;;0.00;0.00;;;;;;;;5046195;28;8993;-89
2022/05/18 14:39:31;;;;;;;;;1.20;0.00;;;;;;;;5043910;28;9715;-91
2022/05/18 14:42:00;;;;;;;;;0.00;0.00;;;;;;;;5058431;28;8882;-92
2022/05/18 14:44:29;;;;;;;;;0.00;0.00;;;;;;;;5048645;28;8883;-89
2022/05/18 14:47:01;;;;;;;;;0.00;0.00;;;;;;;;5050968;28;9679;-89
2022/05/18 14:49:35;;;;;;;;;0.00;0.00;;;;;;;;5046982;28;8874;-90
2022/05/18 14:52:06;;;;;;;;;0.00;0.00;;;;;;;;5048989;28;9636;-90
2022/05/18 14:54:36;;;;;;;;;0.00;0.00;;;;;;;;5049381;28;8859;-91
2022/05/18 14:57:06;;;;;;;;;0.00;0.00;;;;;;;;5047418;28;9483;-89
2022/05/18 14:59:46;;;;;;;;;0.00;0.00;;;;;;;;5048515;28;8871;-90
2022/05/18 15:02:17;;;;;;;;;0.60;0.00;;;;;;;;5041864;28;8795;-88
2022/05/18 15:04:49;;;;;;;;;0.00;0.00;;;;;;;;5044993;28;8851;-87
2022/05/18 15:07:23;;;;;;;;;0.40;0.00;;;;;;;;5041644;28;8871;-86
2022/05/18 15:09:52;;;;;;;;;0.00;0.00;;;;;;;;5044169;28;8914;-89
2022/05/18 15:12:25;;;;;;;;;0.00;0.00;;;;;;;;5045255;28;8867;-88
2022/05/18 15:14:59;;;;;;;;;0.00;0.00;;;;;;;;5043529;28;8910;-92
2022/05/18 15:17:42;;;;;;;;;0.00;0.00;;;;;;;;5044491;28;8910;-84
2022/05/18 15:20:17;;;;;;;;;0.00;0.00;;;;;;;;5043910;28;8851;-88
2022/05/18 15:22:48;;;;;;;;;0.00;0.00;;;;;;;;5043289;28;8875;-90
2022/05/18 15:25:34;;;;;;;;;0.00;0.00;;;;;;;;5045039;28;8875;-84
2022/05/18 15:28:13;;;;;;;;;1.20;0.00;;;;;;;;5034632;28;8878;-79
2022/05/18 15:30:44;;;;;;;;;0.00;0.00;;;;;;;;5032419;28;8768;-84
2022/05/18 15:33:13;;;;;;;;;1.00;0.00;;;;;;;;5031301;28;8843;-82
2022/05/18 15:35:47;;;;;;;;;0.00;0.00;;;;;;;;5038523;28;8887;-84
2022/05/18 15:38:21;;;;;;;;;0.00;0.00;;;;;;;;5042511;28;8848;-82
2022/05/18 15:40:48;;;;;;;;;0.00;0.00;;;;;;;;5038577;28;8874;-79
2022/05/18 15:43:16;;;;;;;;;0.00;0.00;;;;;;;;5037877;28;8873;-89